createdAt,value
2023-05-24T00:00:00.247Z,0.0000
2023-05-24T00:01:01.158Z,0.0000
2023-05-24T00:02:02.302Z,0.0000
2023-05-24T00:03:03.384Z,0.0000
2023-05-24T00:04:03.797Z,0.0000
2023-05-24T00:05:04.922Z,0.0000
2023-05-24T00:06:05.785Z,0.0000
2023-05-24T00:07:06.170Z,0.0000
2023-05-24T00:08:07.851Z,0.0000
2023-05-24T00:09:08.720Z,0.0000
2023-05-24T00:10:09.165Z,0.0000
2023-05-24T00:11:10.120Z,0.0000
2023-05-24T00:12:10.843Z,0.0000
2023-05-24T00:13:11.469Z,0.0000
2023-05-24T00:14:12.353Z,0.0000
2023-05-24T00:15:12.749Z,0.0000
2023-05-24T00:16:13.737Z,0.0000
2023-05-24T00:17:14.552Z,0.0000
2023-05-24T00:18:15.571Z,0.0000
2023-05-24T00:19:16.421Z,0.0000
2023-05-24T00:20:17.697Z,0.0000
2023-05-24T00:21:17.894Z,0.0000
2023-05-24T00:22:18.766Z,0.0000
2023-05-24T00:23:19.187Z,0.0000
2023-05-24T00:24:19.398Z,0.0000
2023-05-24T00:25:20.250Z,0.0000
2023-05-24T00:26:20.911Z,0.0000
2023-05-24T00:27:21.514Z,0.0000
2023-05-24T00:28:22.487Z,0.0000
2023-05-24T00:29:23.637Z,0.0000
2023-05-24T00:30:23.907Z,0.0000
2023-05-24T00:32:24.952Z,0.0000
2023-05-24T00:33:25.229Z,0.0000
2023-05-24T00:34:26.300Z,0.0000
2023-05-24T00:35:26.559Z,0.0000
2023-05-24T00:36:27.511Z,0.0000
2023-05-24T00:37:28.436Z,0.0000
2023-05-24T00:38:28.948Z,0.0000
2023-05-24T00:39:29.893Z,0.0000
2023-05-24T00:40:30.756Z,0.0000
2023-05-24T00:41:32.624Z,0.0000
2023-05-24T00:42:33.080Z,0.0000
2023-05-24T00:43:34.624Z,0.0000
2023-05-24T00:44:35.999Z,0.0000
2023-05-24T00:45:37.612Z,0.0000
2023-05-24T00:46:38.291Z,0.0000
2023-05-24T00:47:40.200Z,0.0000
2023-05-24T00:48:41.166Z,0.0000
2023-05-24T00:49:41.647Z,0.0000
2023-05-24T00:50:42.952Z,0.0000
2023-05-24T00:51:44.348Z,0.0000
2023-05-24T00:52:46.183Z,0.0000
2023-05-24T00:53:46.690Z,0.0000
2023-05-24T00:54:47.628Z,0.0000
2023-05-24T00:55:48.278Z,0.0000
2023-05-24T00:56:49.335Z,0.0000
2023-05-24T00:57:50.306Z,0.0000
2023-05-24T00:58:50.897Z,0.0000
2023-05-24T00:59:52.031Z,0.0000
2023-05-24T01:00:53.127Z,0.0000
2023-05-24T01:01:53.709Z,0.0000
2023-05-24T01:02:54.138Z,0.0000
2023-05-24T01:03:55.126Z,0.0000
2023-05-24T01:04:55.597Z,0.0000
2023-05-24T01:06:57.292Z,0.0000
2023-05-24T01:07:57.773Z,0.0000
2023-05-24T01:09:59.572Z,0.0000
2023-05-24T01:11:00.065Z,0.0000
2023-05-24T01:12:01.345Z,0.0000
2023-05-24T01:13:02.496Z,0.0000
2023-05-24T01:14:02.937Z,0.0000
2023-05-24T01:15:03.553Z,0.0000
2023-05-24T01:16:04.059Z,0.0000
2023-05-24T01:17:04.509Z,0.0000
2023-05-24T01:18:05.495Z,0.0000
2023-05-24T01:19:06.230Z,0.0000
2023-05-24T01:20:07.181Z,0.0000
2023-05-24T01:21:08.237Z,0.0000
2023-05-24T01:22:09.333Z,0.0000
2023-05-24T01:23:10.334Z,0.0000
2023-05-24T01:24:11.376Z,0.0000
2023-05-24T01:25:12.393Z,0.0000
2023-05-24T01:26:13.353Z,0.0000
2023-05-24T01:27:13.893Z,0.0000
2023-05-24T01:29:15.062Z,0.0000
2023-05-24T01:30:17.061Z,0.0000
2023-05-24T01:31:18.231Z,0.0000
2023-05-24T01:32:19.377Z,0.0000
2023-05-24T01:33:21.278Z,0.0000
2023-05-24T01:34:22.320Z,0.0000
2023-05-24T01:35:23.308Z,0.0000
2023-05-24T01:36:24.227Z,0.0000
2023-05-24T01:37:25.388Z,0.0000
2023-05-24T01:38:27.023Z,0.0000
2023-05-24T01:39:27.970Z,0.0000
2023-05-24T01:40:28.447Z,0.0000
2023-05-24T01:41:30.208Z,0.0000
2023-05-24T01:42:31.129Z,0.0000
2023-05-24T01:43:31.484Z,0.0000
2023-05-24T01:44:32.523Z,0.0000
2023-05-24T01:45:32.858Z,0.0000
2023-05-24T01:46:33.834Z,0.0000
2023-05-24T01:47:34.929Z,0.0000
2023-05-24T01:48:36.100Z,0.0000
2023-05-24T01:49:37.009Z,0.0000
2023-05-24T01:50:37.963Z,0.0000
2023-05-24T01:51:38.849Z,0.0000
2023-05-24T01:52:39.745Z,0.0000
2023-05-24T01:53:40.811Z,0.0000
2023-05-24T01:54:41.147Z,0.0000
2023-05-24T01:55:42.100Z,0.0000
2023-05-24T01:56:43.129Z,0.0000
2023-05-24T01:57:44.105Z,0.0000
2023-05-24T01:58:44.450Z,0.0000
2023-05-24T01:59:45.486Z,0.0000
2023-05-24T02:00:46.863Z,0.0000
2023-05-24T02:01:47.803Z,0.0000
2023-05-24T02:02:48.814Z,0.0000
2023-05-24T02:03:49.212Z,0.0000
2023-05-24T02:04:50.173Z,0.0000
2023-05-24T02:05:51.155Z,0.0000
2023-05-24T02:06:51.513Z,0.0000
2023-05-24T02:07:52.726Z,0.0000
2023-05-24T02:08:54.356Z,0.0000
2023-05-24T02:09:55.645Z,0.0000
2023-05-24T02:10:56.555Z,0.0000
2023-05-24T02:11:57.488Z,0.0000
2023-05-24T02:12:57.793Z,0.0000
2023-05-24T02:13:58.085Z,0.0000
2023-05-24T02:14:59.068Z,0.0000
2023-05-24T02:15:59.362Z,0.0000
2023-05-24T02:17:00.542Z,0.0000
2023-05-24T02:18:00.960Z,0.0000
2023-05-24T02:19:01.528Z,0.0000
2023-05-24T02:20:01.880Z,0.0000
2023-05-24T02:21:02.440Z,0.0000
2023-05-24T02:22:02.744Z,0.0000
2023-05-24T02:23:03.120Z,0.0000
2023-05-24T02:24:03.562Z,0.0000
2023-05-24T02:25:03.819Z,0.0000
2023-05-24T02:26:04.087Z,0.0000
2023-05-24T02:27:04.374Z,0.0000
2023-05-24T02:28:05.230Z,0.0000
2023-05-24T02:29:05.476Z,0.0000
2023-05-24T02:30:06.522Z,0.0000
2023-05-24T02:31:07.766Z,0.0000
2023-05-24T02:32:08.031Z,0.0000
2023-05-24T02:33:08.917Z,0.0000
2023-05-24T02:34:09.815Z,0.0000
2023-05-24T02:35:10.092Z,0.0000
2023-05-24T02:36:10.366Z,0.0000
2023-05-24T02:37:11.338Z,0.0000
2023-05-24T02:38:12.322Z,0.0000
2023-05-24T02:40:13.362Z,0.0000
2023-05-24T02:41:14.600Z,0.0000
2023-05-24T02:42:15.060Z,0.0000
2023-05-24T02:43:16.076Z,0.0000
2023-05-24T02:44:17.175Z,0.0000
2023-05-24T02:45:17.439Z,0.0000
2023-05-24T02:46:18.594Z,0.0000
2023-05-24T02:47:19.733Z,0.0000
2023-05-24T02:48:20.261Z,0.0000
2023-05-24T02:49:21.409Z,0.0000
2023-05-24T02:50:22.323Z,0.0000
2023-05-24T02:51:22.665Z,0.0000
2023-05-24T02:52:23.842Z,0.0000
2023-05-24T02:53:24.136Z,0.0000
2023-05-24T02:54:25.358Z,0.0000
2023-05-24T02:55:26.388Z,0.0000
2023-05-24T02:56:27.388Z,0.0000
2023-05-24T02:57:28.848Z,0.0000
2023-05-24T02:58:29.154Z,0.0000
2023-05-24T02:59:30.364Z,0.0000
2023-05-24T03:00:31.337Z,0.0000
2023-05-24T03:01:31.644Z,0.0000
2023-05-24T03:02:32.654Z,0.0000
2023-05-24T03:03:32.973Z,0.0000
2023-05-24T03:05:34.154Z,0.0000
2023-05-24T03:06:35.815Z,0.0000
2023-05-24T03:07:36.133Z,0.0000
2023-05-24T03:08:37.558Z,0.0000
2023-05-24T03:09:38.481Z,0.0000
2023-05-24T03:10:38.738Z,0.0000
2023-05-24T03:12:40.261Z,0.0000
2023-05-24T03:13:41.370Z,0.0000
2023-05-24T03:14:41.626Z,0.0000
2023-05-24T03:15:41.911Z,0.0000
2023-05-24T03:16:42.994Z,0.0000
2023-05-24T03:17:44.060Z,0.0000
2023-05-24T03:18:45.075Z,0.0000
2023-05-24T03:19:45.380Z,0.0000
2023-05-24T03:20:47.113Z,0.0000
2023-05-24T03:21:47.366Z,0.0000
2023-05-24T03:22:49.203Z,0.0000
2023-05-24T03:23:50.210Z,0.0000
2023-05-24T03:24:51.220Z,0.0000
2023-05-24T03:25:51.517Z,0.0000
2023-05-24T03:26:51.813Z,0.0000
2023-05-24T03:27:52.395Z,0.0000
2023-05-24T03:28:52.692Z,0.0000
2023-05-24T03:29:52.977Z,0.0000
2023-05-24T03:30:53.330Z,0.0000
2023-05-24T03:31:53.650Z,0.0000
2023-05-24T03:32:54.027Z,0.0000
2023-05-24T03:33:54.677Z,0.0000
2023-05-24T03:34:55.659Z,0.0000
2023-05-24T03:35:56.155Z,0.0000
2023-05-24T03:36:57.208Z,0.0000
2023-05-24T03:37:58.122Z,0.0000
2023-05-24T03:38:58.638Z,0.0000
2023-05-24T03:39:59.541Z,0.0000
2023-05-24T03:40:59.912Z,0.0000
2023-05-24T03:43:04.265Z,0.0000
2023-05-24T03:44:01.777Z,0.0000
2023-05-24T03:45:02.837Z,0.0000
2023-05-24T03:46:03.787Z,0.0000
2023-05-24T03:47:05.213Z,0.0000
2023-05-24T03:49:06.851Z,5.6250
2023-05-24T03:50:07.115Z,5.6250
2023-05-24T03:51:07.442Z,5.6250
2023-05-24T03:52:08.274Z,5.6250
2023-05-24T03:53:08.564Z,5.6250
2023-05-24T03:54:09.244Z,5.6250
2023-05-24T03:55:10.168Z,6.7500
2023-05-24T03:56:11.101Z,10.4062
2023-05-24T03:57:11.402Z,11.2500
2023-05-24T03:58:12.279Z,11.2500
2023-05-24T03:59:12.585Z,11.2500
2023-05-24T04:00:12.886Z,11.2500
2023-05-24T04:01:25.487Z,13.2188
2023-05-24T04:02:14.765Z,16.2500
2023-05-24T04:03:15.358Z,16.3125
2023-05-24T04:04:16.608Z,16.8750
2023-05-24T04:05:17.983Z,16.8750
2023-05-24T04:06:18.273Z,16.8750
2023-05-24T04:07:19.257Z,16.8750
2023-05-24T04:08:20.267Z,16.8750
2023-05-24T04:10:22.073Z,22.5000
2023-05-24T04:11:23.672Z,22.5000
2023-05-24T04:12:23.929Z,24.7500
2023-05-24T04:13:24.214Z,28.1250
2023-05-24T04:14:24.534Z,30.3750
2023-05-24T04:15:24.812Z,33.7500
2023-05-24T04:16:25.171Z,33.7500
2023-05-24T04:17:25.607Z,32.9062
2023-05-24T04:18:26.813Z,36.2812
2023-05-24T04:19:27.681Z,36.5625
2023-05-24T04:20:28.055Z,33.7500
2023-05-24T04:21:28.879Z,33.7500
2023-05-24T04:22:29.132Z,37.6875
2023-05-24T04:23:30.010Z,40.5000
2023-05-24T04:24:31.089Z,47.8125
2023-05-24T04:25:31.359Z,47.5312
2023-05-24T04:26:32.353Z,49.7812
2023-05-24T04:27:33.284Z,51.4688
2023-05-24T04:28:33.545Z,50.6250
2023-05-24T04:29:34.538Z,47.8125
2023-05-24T04:30:35.442Z,45.8438
2023-05-24T04:31:36.631Z,54.0000
2023-05-24T04:32:36.994Z,49.2188
2023-05-24T04:33:37.951Z,50.6250
2023-05-24T04:34:38.249Z,46.1250
2023-05-24T04:35:38.880Z,52.0312
2023-05-24T04:36:39.964Z,57.6562
2023-05-24T04:37:40.291Z,69.4688
2023-05-24T04:38:40.560Z,78.7500
2023-05-24T04:39:40.924Z,73.1250
2023-05-24T04:40:41.439Z,75.9375
2023-05-24T04:41:42.356Z,69.4688
2023-05-24T04:42:43.393Z,67.5000
2023-05-24T04:43:43.716Z,67.5000
2023-05-24T04:44:44.611Z,61.8750
2023-05-24T04:45:44.890Z,64.4062
2023-05-24T04:46:45.812Z,68.6250
2023-05-24T04:47:46.158Z,71.4375
2023-05-24T04:48:46.439Z,66.6562
2023-05-24T04:49:46.734Z,79.8750
2023-05-24T04:50:47.008Z,92.2500
2023-05-24T04:51:47.572Z,94.5000
2023-05-24T04:52:48.510Z,92.8125
2023-05-24T04:53:48.788Z,93.0938
2023-05-24T04:54:49.735Z,88.8750
2023-05-24T04:55:50.617Z,96.4688
2023-05-24T04:57:52.021Z,103.7812
2023-05-24T04:58:52.305Z,98.1562
2023-05-24T04:59:52.922Z,100.6875
2023-05-24T05:00:53.659Z,102.6562
2023-05-24T05:01:54.252Z,103.5000
2023-05-24T05:02:54.748Z,91.9688
2023-05-24T05:03:55.256Z,78.7500
2023-05-24T05:04:55.999Z,79.3125
2023-05-24T05:05:56.596Z,81.0000
2023-05-24T05:07:58.916Z,87.4688
2023-05-24T05:08:59.430Z,90.0000
2023-05-24T05:10:00.453Z,98.4375
2023-05-24T05:11:01.463Z,104.9062
2023-05-24T05:12:01.968Z,107.4375
2023-05-24T05:13:02.558Z,111.0938
2023-05-24T05:14:03.149Z,111.9375
2023-05-24T05:15:04.025Z,127.9688
2023-05-24T05:16:04.404Z,117.5625
2023-05-24T05:17:05.270Z,107.1562
2023-05-24T05:18:05.815Z,118.6875
2023-05-24T05:19:06.466Z,130.7812
2023-05-24T05:20:06.746Z,129.3750
2023-05-24T05:21:07.854Z,133.0312
2023-05-24T05:22:08.130Z,134.7188
2023-05-24T05:23:08.392Z,140.9062
2023-05-24T05:24:12.553Z,140.9062
2023-05-24T05:25:12.026Z,140.9211
2023-05-24T05:26:12.965Z,136.9688
2023-05-24T05:27:14.510Z,122.0625
2023-05-24T05:28:16.445Z,113.0625
2023-05-24T05:29:16.878Z,104.9062
2023-05-24T05:30:17.974Z,102.0938
2023-05-24T05:31:19.616Z,81.8438
2023-05-24T05:32:20.802Z,89.1562
2023-05-24T05:33:22.062Z,88.5938
2023-05-24T05:34:22.319Z,90.0000
2023-05-24T05:35:22.974Z,91.1250
2023-05-24T05:38:24.489Z,82.6875
2023-05-24T05:39:24.743Z,77.6250
2023-05-24T05:40:25.249Z,85.7812
2023-05-24T05:41:25.697Z,75.6562
2023-05-24T05:42:26.154Z,75.6562
2023-05-24T05:43:26.607Z,72.5625
2023-05-24T05:44:27.557Z,75.0938
2023-05-24T05:45:27.862Z,81.0000
2023-05-24T05:46:28.189Z,90.0000
2023-05-24T05:47:28.472Z,90.2812
2023-05-24T05:48:29.044Z,95.6250
2023-05-24T05:49:29.888Z,95.6250
2023-05-24T05:50:31.331Z,99.2812
2023-05-24T05:51:33.092Z,99.5625
2023-05-24T05:52:33.832Z,99.5625
2023-05-24T05:53:34.493Z,91.4062
2023-05-24T05:54:35.891Z,100.9688
2023-05-24T05:55:36.177Z,106.0312
2023-05-24T05:56:37.439Z,101.2500
2023-05-24T05:57:39.014Z,101.5312
2023-05-24T05:58:39.485Z,101.2500
2023-05-24T05:59:40.494Z,106.5938
2023-05-24T06:00:42.619Z,110.8125
2023-05-24T06:01:43.620Z,106.8750
2023-05-24T06:02:44.195Z,101.5312
2023-05-24T06:04:45.095Z,84.9375
2023-05-24T06:05:45.395Z,76.7812
2023-05-24T06:06:46.449Z,69.4688
2023-05-24T06:07:47.422Z,82.9688
2023-05-24T06:08:48.723Z,116.1562
2023-05-24T06:09:49.755Z,123.7500
2023-05-24T06:10:52.825Z,129.3750
2023-05-24T06:13:50.647Z,150.4688
2023-05-24T06:14:50.935Z,156.6562
2023-05-24T06:15:51.228Z,160.0312
2023-05-24T06:16:51.541Z,172.4062
2023-05-24T06:17:51.907Z,187.8750
2023-05-24T06:19:04.605Z,198.5625
2023-05-24T06:19:53.229Z,198.7500
2023-05-24T06:20:53.487Z,216.2812
2023-05-24T06:21:53.904Z,198.2812
2023-05-24T06:22:54.198Z,166.5000
2023-05-24T06:23:54.496Z,166.2188
2023-05-24T06:24:55.521Z,192.9375
2023-05-24T06:25:55.816Z,186.4688
2023-05-24T06:26:56.106Z,180.0000
2023-05-24T06:27:57.163Z,163.6875
2023-05-24T06:28:57.442Z,142.5938
2023-05-24T06:29:57.724Z,131.6250
2023-05-24T06:30:58.707Z,118.9688
2023-05-24T06:31:59.047Z,123.7500
2023-05-24T06:33:00.164Z,112.5000
2023-05-24T06:34:03.638Z,108.8438
2023-05-24T06:35:01.959Z,90.8882
2023-05-24T06:36:03.120Z,95.9062
2023-05-24T06:37:04.035Z,118.1250
2023-05-24T06:38:04.328Z,108.5625
2023-05-24T06:39:05.261Z,106.8750
2023-05-24T06:40:05.515Z,102.3750
2023-05-24T06:41:06.702Z,120.0938
2023-05-24T06:42:07.146Z,129.3750
2023-05-24T06:43:07.489Z,123.7500
2023-05-24T06:44:07.859Z,137.8125
2023-05-24T06:46:08.411Z,165.0938
2023-05-24T06:47:08.989Z,187.0312
2023-05-24T06:48:09.484Z,198.5625
2023-05-24T06:49:10.502Z,193.2188
2023-05-24T06:51:12.913Z,281.5312
2023-05-24T06:53:14.846Z,283.7812
2023-05-24T06:54:16.365Z,319.7812
2023-05-24T06:55:17.331Z,321.1875
2023-05-24T06:56:18.236Z,379.1250
2023-05-24T06:57:18.546Z,438.7500
2023-05-24T06:58:19.498Z,479.8125
2023-05-24T06:59:20.790Z,459.8438
2023-05-24T07:00:21.956Z,459.5625
2023-05-24T07:01:22.721Z,505.9539
2023-05-24T07:02:23.022Z,513.8438
2023-05-24T07:03:24.338Z,577.1250
2023-05-24T07:04:25.005Z,554.9062
2023-05-24T07:05:25.282Z,660.3750
2023-05-24T07:06:25.686Z,635.6250
2023-05-24T07:07:26.192Z,624.9375
2023-05-24T07:08:26.471Z,562.2188
2023-05-24T07:10:27.745Z,436.2188
2023-05-24T07:11:28.646Z,347.0625
2023-05-24T07:12:29.112Z,313.5938
2023-05-24T07:14:30.016Z,259.3125
2023-05-24T07:15:30.724Z,259.8750
2023-05-24T07:16:31.003Z,271.6875
2023-05-24T07:17:31.537Z,259.5938
2023-05-24T07:18:32.289Z,253.1250
2023-05-24T07:19:33.238Z,287.7188
2023-05-24T07:20:33.528Z,292.2188
2023-05-24T07:21:34.785Z,261.5625
2023-05-24T07:22:36.597Z,269.7188
2023-05-24T07:23:37.410Z,219.3750
2023-05-24T07:24:38.106Z,226.6875
2023-05-24T07:25:38.428Z,223.0312
2023-05-24T07:26:39.146Z,199.9688
2023-05-24T07:27:40.536Z,190.9688
2023-05-24T07:28:40.839Z,185.6250
2023-05-24T07:31:42.982Z,158.3438
2023-05-24T07:33:44.409Z,194.6250
2023-05-24T07:34:44.690Z,222.4688
2023-05-24T07:35:45.172Z,241.0312
2023-05-24T07:36:45.783Z,245.2500
2023-05-24T07:37:46.409Z,254.2500
2023-05-24T07:38:49.095Z,267.3529
2023-05-24T07:39:49.413Z,258.4688
2023-05-24T07:40:49.961Z,256.3816
2023-05-24T07:41:50.245Z,239.0625
2023-05-24T07:42:51.044Z,214.5938
2023-05-24T07:43:51.310Z,203.6250
2023-05-24T07:44:51.600Z,221.9062
2023-05-24T07:45:52.621Z,281.5312
2023-05-24T07:46:52.992Z,331.0312
2023-05-24T07:55:59.426Z,252.8438
2023-05-24T07:56:59.804Z,241.0312
2023-05-24T07:58:00.906Z,237.6562
2023-05-24T07:59:01.347Z,236.5312
2023-05-24T08:00:01.931Z,254.5312
2023-05-24T08:01:02.419Z,268.3125
2023-05-24T08:02:02.765Z,301.2188
2023-05-24T08:04:03.545Z,358.5938
2023-05-24T08:05:03.988Z,395.1562
2023-05-24T08:06:05.111Z,383.0625
2023-05-24T08:07:05.588Z,363.0938
2023-05-24T08:12:08.746Z,536.9062
2023-05-24T08:13:09.186Z,520.5938
2023-05-24T08:14:11.535Z,475.5938
2023-05-24T08:15:14.131Z,421.5938
2023-05-24T08:16:14.662Z,435.0938
2023-05-24T08:18:17.912Z,455.9062
2023-05-24T08:19:18.364Z,473.6250
2023-05-24T08:20:18.743Z,482.0625
2023-05-24T08:21:20.190Z,439.3125
2023-05-24T08:22:20.669Z,452.5312
2023-05-24T08:23:20.931Z,552.6562
2023-05-24T08:24:21.413Z,557.1562
2023-05-24T08:25:22.179Z,531.8438
2023-05-24T08:26:22.483Z,569.2500
2023-05-24T08:27:22.719Z,637.5938
2023-05-24T08:28:23.081Z,684.5625
2023-05-24T08:29:23.855Z,620.4375
2023-05-24T08:30:24.458Z,538.8750
2023-05-24T08:31:24.834Z,540.8438
2023-05-24T08:32:25.952Z,607.7812
2023-05-24T08:33:26.289Z,611.7188
2023-05-24T08:34:26.534Z,592.3125
2023-05-24T08:35:26.970Z,516.3750
2023-05-24T08:36:28.336Z,468.5625
2023-05-24T08:37:28.644Z,507.6562
2023-05-24T08:38:29.433Z,595.4062
2023-05-24T08:39:29.938Z,634.2188
2023-05-24T08:40:31.426Z,565.8750
2023-05-24T08:41:32.549Z,464.3438
2023-05-24T08:42:32.832Z,455.6250
2023-05-24T08:43:33.132Z,431.7188
2023-05-24T08:44:33.465Z,387.8438
2023-05-24T08:45:33.762Z,383.6250
2023-05-24T08:46:34.105Z,423.0000
2023-05-24T08:47:34.438Z,439.0312
2023-05-24T08:48:34.966Z,467.1562
2023-05-24T08:49:35.321Z,451.9688
2023-05-24T08:50:35.610Z,451.1250
2023-05-24T08:51:35.926Z,416.5312
2023-05-24T08:52:36.250Z,371.2500
2023-05-24T08:53:37.379Z,323.1562
2023-05-24T08:54:37.637Z,318.6562
2023-05-24T08:55:37.905Z,319.7812
2023-05-24T08:56:38.812Z,298.9688
2023-05-24T08:57:39.095Z,284.0625
2023-05-24T08:58:39.919Z,292.5000
2023-05-24T08:59:40.906Z,331.8750
2023-05-24T09:00:41.204Z,359.4375
2023-05-24T09:01:42.790Z,346.7812
2023-05-24T09:02:43.878Z,383.3438
2023-05-24T09:03:44.214Z,390.9375
2023-05-24T09:04:45.093Z,350.7188
2023-05-24T09:05:45.960Z,332.1562
2023-05-24T09:06:46.791Z,322.8750
2023-05-24T09:07:47.211Z,295.0312
2023-05-24T09:08:47.484Z,268.3125
2023-05-24T09:09:49.358Z,250.5938
2023-05-24T09:10:55.528Z,254.5312
2023-05-24T09:11:50.892Z,260.0000
2023-05-24T09:12:51.374Z,271.9688
2023-05-24T09:13:51.692Z,295.0312
2023-05-24T09:14:51.982Z,317.8125
2023-05-24T09:15:52.690Z,332.1562
2023-05-24T09:16:53.123Z,348.1875
2023-05-24T09:17:53.569Z,400.2188
2023-05-24T09:18:53.916Z,432.2812
2023-05-24T09:19:54.799Z,425.2500
2023-05-24T09:20:55.475Z,413.4375
2023-05-24T09:21:56.037Z,392.9062
2023-05-24T09:22:56.330Z,373.2188
2023-05-24T09:23:56.761Z,354.0938
2023-05-24T09:24:57.487Z,345.3750
2023-05-24T09:25:57.822Z,348.7500
2023-05-24T09:26:58.235Z,349.5938
2023-05-24T09:27:58.503Z,356.9062
2023-05-24T09:28:58.955Z,360.0000
2023-05-24T09:29:59.947Z,360.0000
2023-05-24T09:31:00.591Z,363.3750
2023-05-24T09:32:01.392Z,373.2188
2023-05-24T09:33:01.805Z,403.0312
2023-05-24T09:34:02.142Z,425.8125
2023-05-24T09:35:02.654Z,413.4375
2023-05-24T09:36:02.935Z,421.5938
2023-05-24T09:37:04.020Z,471.6562
2023-05-24T09:38:04.550Z,501.7500
2023-05-24T09:40:06.225Z,538.8750
2023-05-24T09:41:06.606Z,560.5312
2023-05-24T09:42:06.944Z,568.4062
2023-05-24T09:43:07.712Z,563.9062
2023-05-24T09:44:07.985Z,550.9688
2023-05-24T09:45:08.616Z,572.3438
2023-05-24T09:46:09.134Z,580.5000
2023-05-24T09:47:09.735Z,589.5000
2023-05-24T09:48:10.141Z,612.0000
2023-05-24T09:49:10.513Z,622.9688
2023-05-24T09:50:10.987Z,633.0938
2023-05-24T09:51:11.298Z,659.8125
2023-05-24T09:52:11.627Z,680.0625
2023-05-24T09:53:13.141Z,711.5625
2023-05-24T09:54:13.479Z,747.8438
2023-05-24T09:55:14.002Z,767.5312
2023-05-24T09:56:15.204Z,741.0938
2023-05-24T09:57:15.625Z,738.5625
2023-05-24T09:58:15.946Z,746.1562
2023-05-24T09:59:16.256Z,756.0000
2023-05-24T10:00:17.827Z,767.5312
2023-05-24T10:01:19.163Z,782.4375
2023-05-24T10:02:19.806Z,774.8438
2023-05-24T10:03:20.140Z,775.4062
2023-05-24T10:04:20.617Z,817.0312
2023-05-24T10:05:20.999Z,871.3125
2023-05-24T10:06:21.299Z,907.5938
2023-05-24T10:07:21.617Z,942.4688
2023-05-24T10:09:22.128Z,925.3125
2023-05-24T10:10:22.407Z,922.7812
2023-05-24T10:11:22.735Z,968.0625
2023-05-24T10:12:23.014Z,995.3438
2023-05-24T10:13:23.340Z,991.6875
2023-05-24T10:14:23.749Z,969.7500
2023-05-24T10:15:24.104Z,949.2188
2023-05-24T10:16:24.420Z,941.0625
2023-05-24T10:17:24.798Z,911.5312
2023-05-24T10:18:25.081Z,869.3438
2023-05-24T10:19:25.457Z,817.3125
2023-05-24T10:20:26.028Z,723.9375
2023-05-24T10:21:26.438Z,627.7500
2023-05-24T10:22:26.712Z,636.1875
2023-05-24T10:23:27.003Z,702.5625
2023-05-24T10:24:27.346Z,730.9688
2023-05-24T10:25:27.684Z,700.5938
2023-05-24T10:26:28.235Z,644.6250
2023-05-24T10:27:28.626Z,643.2188
2023-05-24T10:29:29.080Z,673.3125
2023-05-24T10:30:29.439Z,642.0938
2023-05-24T10:31:29.845Z,602.7188
2023-05-24T10:32:30.271Z,563.9062
2023-05-24T10:33:30.612Z,529.3125
2023-05-24T10:34:30.934Z,504.2812
2023-05-24T10:35:31.230Z,500.0625
2023-05-24T10:36:31.520Z,483.7500
2023-05-24T10:37:31.861Z,474.4688
2023-05-24T10:38:32.169Z,471.6562
2023-05-24T10:39:32.533Z,472.7812
2023-05-24T10:40:32.985Z,485.1562
2023-05-24T10:41:33.344Z,491.6250
2023-05-24T10:42:33.700Z,496.1250
2023-05-24T10:43:34.078Z,478.4062
2023-05-24T10:44:34.329Z,450.8438
2023-05-24T10:45:34.695Z,424.9688
2023-05-24T10:46:35.045Z,397.4062
2023-05-24T10:47:37.566Z,369.0000
2023-05-24T10:48:36.254Z,349.6382
2023-05-24T10:49:36.579Z,335.8125
2023-05-24T10:50:36.915Z,324.8438
2023-05-24T10:51:37.226Z,310.2188
2023-05-24T10:52:37.592Z,297.0000
2023-05-24T10:53:37.954Z,302.3438
2023-05-24T10:54:39.760Z,306.2812
2023-05-24T10:55:40.504Z,307.8947
2023-05-24T10:56:40.873Z,303.4688
2023-05-24T10:57:41.519Z,293.3438
2023-05-24T10:59:42.136Z,287.4375
2023-05-24T11:00:42.722Z,293.9062
2023-05-24T11:01:43.282Z,295.5938
2023-05-24T11:03:43.966Z,293.6250
2023-05-24T11:04:44.316Z,303.7500
2023-05-24T11:05:46.473Z,317.5312
2023-05-24T11:06:47.191Z,330.4688
2023-05-24T11:07:47.543Z,327.9375
2023-05-24T11:08:47.889Z,326.2500
2023-05-24T11:09:48.236Z,345.9375
2023-05-24T11:10:48.513Z,363.9375
2023-05-24T11:11:48.913Z,378.8438
2023-05-24T11:12:49.316Z,381.9375
2023-05-24T11:13:49.942Z,379.9688
2023-05-24T11:14:50.554Z,396.8438
2023-05-24T11:15:50.995Z,424.9688
2023-05-24T11:16:51.510Z,430.8750
2023-05-24T11:17:52.312Z,412.0312
2023-05-24T11:18:52.734Z,406.9688
2023-05-24T11:19:53.438Z,414.8438
2023-05-24T11:20:54.518Z,424.6875
2023-05-24T11:21:54.877Z,430.0312
2023-05-24T11:22:55.504Z,465.7500
2023-05-24T11:23:55.885Z,510.7500
2023-05-24T11:24:56.305Z,544.5000
2023-05-24T11:25:56.719Z,565.5938
2023-05-24T11:26:57.122Z,553.5000
2023-05-24T11:27:57.510Z,527.6250
2023-05-24T11:29:58.116Z,463.7812
2023-05-24T11:30:58.468Z,456.4688
2023-05-24T11:31:58.908Z,455.3438
2023-05-24T11:32:59.323Z,437.9062
2023-05-24T11:33:59.810Z,423.2812
2023-05-24T11:35:00.160Z,423.5625
2023-05-24T11:36:00.609Z,425.5312
2023-05-24T11:37:01.033Z,426.6562
2023-05-24T11:38:02.446Z,440.1562
2023-05-24T11:39:02.829Z,471.9375
2023-05-24T11:40:03.173Z,499.7812
2023-05-24T11:41:03.569Z,534.6562
2023-05-24T11:42:03.959Z,565.3125
2023-05-24T11:43:04.344Z,581.3438
2023-05-24T11:44:04.655Z,602.7188
2023-05-24T11:45:06.176Z,637.0312
2023-05-24T11:46:06.570Z,663.4688
2023-05-24T11:48:07.113Z,686.8125
2023-05-24T11:49:07.498Z,707.9062
2023-05-24T11:50:07.888Z,748.4062
2023-05-24T11:51:08.256Z,769.5000
2023-05-24T11:52:08.585Z,752.0625
2023-05-24T11:53:08.917Z,734.0625
2023-05-24T11:54:09.288Z,735.1875
2023-05-24T11:55:09.604Z,737.7188
2023-05-24T11:56:09.982Z,734.0625
2023-05-24T11:57:10.338Z,741.6562
2023-05-24T11:58:10.706Z,741.6562
2023-05-24T11:59:11.137Z,743.9062
2023-05-24T12:00:11.541Z,754.5938
2023-05-24T12:01:11.867Z,773.1562
2023-05-24T12:02:12.224Z,775.1250
2023-05-24T12:03:12.880Z,775.9688
2023-05-24T12:04:13.483Z,784.1250
2023-05-24T12:05:14.021Z,796.2188
2023-05-24T12:06:14.396Z,817.8750
2023-05-24T12:07:14.778Z,840.3750
2023-05-24T12:08:15.107Z,857.2500
2023-05-24T12:09:15.746Z,874.9688
2023-05-24T12:10:16.065Z,900.2812
2023-05-24T12:11:16.470Z,931.2188
2023-05-24T12:12:16.797Z,942.4688
2023-05-24T12:13:17.497Z,962.4375
2023-05-24T12:14:18.115Z,984.3750
2023-05-24T12:15:18.675Z,995.0625
2023-05-24T12:16:19.245Z,989.4375
2023-05-24T12:17:19.845Z,957.9375
2023-05-24T12:18:20.193Z,910.1250
2023-05-24T12:19:32.381Z,886.5000
2023-05-24T12:20:21.191Z,866.2500
2023-05-24T12:21:21.603Z,859.5000
2023-05-24T12:22:21.962Z,865.6875
2023-05-24T12:23:22.295Z,887.3438
2023-05-24T12:24:22.660Z,923.6250
2023-05-24T12:25:22.976Z,978.7500
2023-05-24T12:26:23.315Z,1042.8750
2023-05-24T12:27:23.679Z,1107.5625
2023-05-24T12:28:24.012Z,1187.1562
2023-05-24T12:29:24.380Z,1227.3750
2023-05-24T12:30:24.718Z,1201.5000
2023-05-24T12:31:25.095Z,1091.5312
2023-05-24T12:32:25.451Z,1086.4688
2023-05-24T12:33:25.809Z,1094.6250
2023-05-24T12:34:26.124Z,1063.4062
2023-05-24T12:35:26.468Z,1039.2188
2023-05-24T12:36:26.806Z,1012.5000
2023-05-24T12:37:27.157Z,1002.3750
2023-05-24T12:38:27.528Z,1022.9062
2023-05-24T12:39:27.914Z,1033.5938
2023-05-24T12:40:28.236Z,1032.4688
2023-05-24T12:41:28.596Z,999.0000
2023-05-24T12:42:28.947Z,989.7188
2023-05-24T12:43:29.276Z,992.2500
2023-05-24T12:44:29.660Z,919.9688
2023-05-24T12:45:30.076Z,772.8750
2023-05-24T12:46:30.441Z,678.6562
2023-05-24T12:47:30.917Z,744.1875
2023-05-24T12:48:31.376Z,761.9062
2023-05-24T12:49:31.755Z,695.2500
2023-05-24T12:50:32.099Z,665.7188
2023-05-24T12:51:32.682Z,715.2188
2023-05-24T12:52:33.081Z,763.8750
2023-05-24T12:53:33.442Z,758.8125